sensor_id;sensor_type;location;lat;lon;timestamp;P1;durP1;ratioP1;P2;durP2;ratioP2
78072;SDS011;67281;48.770;11.440;2023-09-12T00:00:30;2.88;;;2.47;;
78072;SDS011;67281;48.770;11.440;2023-09-12T00:02:57;3.35;;;3.15;;
78072;SDS011;67281;48.770;11.440;2023-09-12T00:05:24;3.13;;;2.83;;
78072;SDS011;67281;48.770;11.440;2023-09-12T00:07:54;3.47;;;2.50;;
78072;SDS011;67281;48.770;11.440;2023-09-12T00:10:20;2.10;;;2.00;;
78072;SDS011;67281;48.770;11.440;2023-09-12T00:12:47;2.37;;;2.17;;
78072;SDS011;67281;48.770;11.440;2023-09-12T00:15:14;3.90;;;2.37;;
78072;SDS011;67281;48.770;11.440;2023-09-12T00:17:41;3.35;;;3.15;;
78072;SDS011;67281;48.770;11.440;2023-09-12T00:20:08;3.03;;;2.73;;
78072;SDS011;67281;48.770;11.440;2023-09-12T00:22:35;3.10;;;2.80;;
78072;SDS011;67281;48.770;11.440;2023-09-12T00:25:02;4.37;;;3.27;;
78072;SDS011;67281;48.770;11.440;2023-09-12T00:27:29;3.10;;;2.90;;
78072;SDS011;67281;48.770;11.440;2023-09-12T00:29:56;3.07;;;2.63;;
78072;SDS011;67281;48.770;11.440;2023-09-12T00:32:23;2.95;;;2.63;;
78072;SDS011;67281;48.770;11.440;2023-09-12T00:34:50;3.43;;;3.13;;
78072;SDS011;67281;48.770;11.440;2023-09-12T00:37:17;3.40;;;3.10;;
78072;SDS011;67281;48.770;11.440;2023-09-12T00:39:43;3.13;;;2.83;;
78072;SDS011;67281;48.770;11.440;2023-09-12T00:42:10;3.47;;;3.17;;
78072;SDS011;67281;48.770;11.440;2023-09-12T00:44:37;3.57;;;3.33;;
78072;SDS011;67281;48.770;11.440;2023-09-12T00:47:04;4.07;;;3.73;;
78072;SDS011;67281;48.770;11.440;2023-09-12T00:49:32;3.67;;;3.37;;
78072;SDS011;67281;48.770;11.440;2023-09-12T00:51:59;4.10;;;2.90;;
78072;SDS011;67281;48.770;11.440;2023-09-12T00:54:28;2.93;;;2.73;;
78072;SDS011;67281;48.770;11.440;2023-09-12T00:56:55;3.40;;;3.10;;
78072;SDS011;67281;48.770;11.440;2023-09-12T00:59:22;3.60;;;3.30;;
78072;SDS011;67281;48.770;11.440;2023-09-12T01:01:49;7.53;;;3.87;;
78072;SDS011;67281;48.770;11.440;2023-09-12T01:04:17;4.90;;;2.97;;
78072;SDS011;67281;48.770;11.440;2023-09-12T01:07:00;3.80;;;3.50;;
78072;SDS011;67281;48.770;11.440;2023-09-12T01:09:27;3.80;;;3.43;;
78072;SDS011;67281;48.770;11.440;2023-09-12T01:11:54;4.10;;;3.70;;
78072;SDS011;67281;48.770;11.440;2023-09-12T01:14:22;3.63;;;3.33;;
78072;SDS011;67281;48.770;11.440;2023-09-12T01:16:49;4.20;;;3.73;;
78072;SDS011;67281;48.770;11.440;2023-09-12T01:19:16;4.10;;;3.73;;
78072;SDS011;67281;48.770;11.440;2023-09-12T01:27:32;4.50;;;4.07;;
78072;SDS011;67281;48.770;11.440;2023-09-12T01:30:02;5.30;;;4.20;;
78072;SDS011;67281;48.770;11.440;2023-09-12T01:32:32;4.37;;;3.97;;
78072;SDS011;67281;48.770;11.440;2023-09-12T01:35:00;4.23;;;3.83;;
78072;SDS011;67281;48.770;11.440;2023-09-12T01:37:26;4.63;;;4.13;;
78072;SDS011;67281;48.770;11.440;2023-09-12T01:39:53;4.33;;;3.93;;
78072;SDS011;67281;48.770;11.440;2023-09-12T01:42:21;4.63;;;3.57;;
78072;SDS011;67281;48.770;11.440;2023-09-12T01:44:49;4.60;;;4.00;;
78072;SDS011;67281;48.770;11.440;2023-09-12T01:47:17;3.63;;;3.33;;
78072;SDS011;67281;48.770;11.440;2023-09-12T01:49:48;3.07;;;2.87;;
78072;SDS011;67281;48.770;11.440;2023-09-12T01:52:18;3.80;;;3.50;;
78072;SDS011;67281;48.770;11.440;2023-09-12T01:54:46;5.23;;;4.10;;
78072;SDS011;67281;48.770;11.440;2023-09-12T01:57:15;4.27;;;3.77;;
78072;SDS011;67281;48.770;11.440;2023-09-12T01:59:43;3.97;;;3.50;;
78072;SDS011;67281;48.770;11.440;2023-09-12T02:02:11;3.97;;;3.67;;
78072;SDS011;67281;48.770;11.440;2023-09-12T02:04:38;6.90;;;4.20;;
78072;SDS011;67281;48.770;11.440;2023-09-12T02:07:04;4.33;;;3.47;;
78072;SDS011;67281;48.770;11.440;2023-09-12T02:09:31;5.47;;;4.57;;
78072;SDS011;67281;48.770;11.440;2023-09-12T02:11:58;6.17;;;4.50;;
78072;SDS011;67281;48.770;11.440;2023-09-12T02:14:25;4.40;;;4.00;;
78072;SDS011;67281;48.770;11.440;2023-09-12T02:16:52;5.60;;;4.50;;
78072;SDS011;67281;48.770;11.440;2023-09-12T02:19:19;4.00;;;3.57;;
78072;SDS011;67281;48.770;11.440;2023-09-12T02:21:45;6.00;;;4.30;;
78072;SDS011;67281;48.770;11.440;2023-09-12T02:24:12;6.53;;;3.90;;
78072;SDS011;67281;48.770;11.440;2023-09-12T02:26:39;3.77;;;3.47;;
78072;SDS011;67281;48.770;11.440;2023-09-12T02:29:06;4.50;;;4.10;;
78072;SDS011;67281;48.770;11.440;2023-09-12T02:31:33;8.57;;;4.33;;
78072;SDS011;67281;48.770;11.440;2023-09-12T02:34:00;5.13;;;4.63;;
78072;SDS011;67281;48.770;11.440;2023-09-12T02:36:28;3.93;;;3.63;;
78072;SDS011;67281;48.770;11.440;2023-09-12T02:38:55;5.77;;;4.60;;
78072;SDS011;67281;48.770;11.440;2023-09-12T02:41:21;4.27;;;3.87;;
78072;SDS011;67281;48.770;11.440;2023-09-12T02:43:48;3.73;;;3.43;;
78072;SDS011;67281;48.770;11.440;2023-09-12T02:46:15;4.60;;;3.93;;
78072;SDS011;67281;48.770;11.440;2023-09-12T02:48:42;5.07;;;4.60;;
78072;SDS011;67281;48.770;11.440;2023-09-12T02:51:09;4.50;;;4.00;;
78072;SDS011;67281;48.770;11.440;2023-09-12T02:53:36;4.00;;;3.63;;
78072;SDS011;67281;48.770;11.440;2023-09-12T02:56:03;3.33;;;3.10;;
78072;SDS011;67281;48.770;11.440;2023-09-12T02:58:30;6.70;;;4.90;;
78072;SDS011;67281;48.770;11.440;2023-09-12T03:00:56;3.83;;;3.50;;
78072;SDS011;67281;48.770;11.440;2023-09-12T03:03:23;4.23;;;3.70;;
78072;SDS011;67281;48.770;11.440;2023-09-12T03:05:57;4.43;;;4.03;;
78072;SDS011;67281;48.770;11.440;2023-09-12T03:08:25;4.43;;;3.67;;
78072;SDS011;67281;48.770;11.440;2023-09-12T03:10:55;4.10;;;3.53;;
78072;SDS011;67281;48.770;11.440;2023-09-12T03:13:26;4.77;;;4.37;;
78072;SDS011;67281;48.770;11.440;2023-09-12T03:15:53;3.37;;;3.07;;
78072;SDS011;67281;48.770;11.440;2023-09-12T03:18:19;4.23;;;3.93;;
78072;SDS011;67281;48.770;11.440;2023-09-12T03:20:47;4.50;;;4.10;;
78072;SDS011;67281;48.770;11.440;2023-09-12T03:23:13;5.53;;;3.93;;
78072;SDS011;67281;48.770;11.440;2023-09-12T03:25:40;3.60;;;3.30;;
78072;SDS011;67281;48.770;11.440;2023-09-12T03:28:07;5.53;;;3.80;;
78072;SDS011;67281;48.770;11.440;2023-09-12T03:30:35;4.70;;;3.73;;
78072;SDS011;67281;48.770;11.440;2023-09-12T03:33:03;6.23;;;4.03;;
78072;SDS011;67281;48.770;11.440;2023-09-12T03:35:31;5.43;;;3.37;;
78072;SDS011;67281;48.770;11.440;2023-09-12T03:37:59;4.80;;;3.97;;
78072;SDS011;67281;48.770;11.440;2023-09-12T03:40:29;5.73;;;4.20;;
78072;SDS011;67281;48.770;11.440;2023-09-12T03:42:57;4.00;;;3.67;;
78072;SDS011;67281;48.770;11.440;2023-09-12T03:45:24;6.07;;;3.80;;
78072;SDS011;67281;48.770;11.440;2023-09-12T03:47:51;4.20;;;3.80;;
78072;SDS011;67281;48.770;11.440;2023-09-12T03:50:18;4.23;;;3.53;;
78072;SDS011;67281;48.770;11.440;2023-09-12T03:52:45;3.83;;;3.50;;
78072;SDS011;67281;48.770;11.440;2023-09-12T03:55:12;4.17;;;3.80;;
78072;SDS011;67281;48.770;11.440;2023-09-12T03:57:39;4.93;;;4.43;;
78072;SDS011;67281;48.770;11.440;2023-09-12T04:00:06;3.97;;;3.57;;
78072;SDS011;67281;48.770;11.440;2023-09-12T04:02:34;6.50;;;4.80;;
78072;SDS011;67281;48.770;11.440;2023-09-12T04:05:01;5.03;;;3.97;;
78072;SDS011;67281;48.770;11.440;2023-09-12T04:07:27;4.07;;;3.77;;
78072;SDS011;67281;48.770;11.440;2023-09-12T04:09:55;6.30;;;4.70;;
78072;SDS011;67281;48.770;11.440;2023-09-12T04:12:21;5.63;;;4.37;;
78072;SDS011;67281;48.770;11.440;2023-09-12T04:14:49;3.33;;;2.93;;
78072;SDS011;67281;48.770;11.440;2023-09-12T04:17:17;4.57;;;4.17;;
78072;SDS011;67281;48.770;11.440;2023-09-12T04:19:44;3.47;;;3.17;;
78072;SDS011;67281;48.770;11.440;2023-09-12T04:22:11;3.83;;;3.53;;
78072;SDS011;67281;48.770;11.440;2023-09-12T04:24:38;3.80;;;3.50;;
78072;SDS011;67281;48.770;11.440;2023-09-12T04:27:05;6.20;;;4.53;;
78072;SDS011;67281;48.770;11.440;2023-09-12T04:29:32;4.77;;;4.37;;
78072;SDS011;67281;48.770;11.440;2023-09-12T04:32:04;4.50;;;4.10;;
78072;SDS011;67281;48.770;11.440;2023-09-12T04:34:32;3.97;;;3.67;;
78072;SDS011;67281;48.770;11.440;2023-09-12T04:36:59;4.00;;;3.70;;
78072;SDS011;67281;48.770;11.440;2023-09-12T04:39:28;4.57;;;3.73;;
78072;SDS011;67281;48.770;11.440;2023-09-12T04:41:56;6.97;;;4.07;;
78072;SDS011;67281;48.770;11.440;2023-09-12T04:44:23;3.50;;;3.30;;
78072;SDS011;67281;48.770;11.440;2023-09-12T04:46:50;4.33;;;3.93;;
78072;SDS011;67281;48.770;11.440;2023-09-12T04:49:17;3.10;;;2.90;;
78072;SDS011;67281;48.770;11.440;2023-09-12T04:51:44;4.97;;;3.93;;
78072;SDS011;67281;48.770;11.440;2023-09-12T04:54:10;4.97;;;4.57;;
78072;SDS011;67281;48.770;11.440;2023-09-12T04:56:37;4.57;;;3.53;;
78072;SDS011;67281;48.770;11.440;2023-09-12T04:59:04;4.37;;;3.83;;
78072;SDS011;67281;48.770;11.440;2023-09-12T05:01:33;4.03;;;3.27;;
78072;SDS011;67281;48.770;11.440;2023-09-12T05:04:00;4.00;;;3.53;;
78072;SDS011;67281;48.770;11.440;2023-09-12T05:06:27;3.80;;;3.50;;
78072;SDS011;67281;48.770;11.440;2023-09-12T05:08:54;3.27;;;3.07;;
78072;SDS011;67281;48.770;11.440;2023-09-12T05:11:23;4.33;;;3.67;;
78072;SDS011;67281;48.770;11.440;2023-09-12T05:13:51;5.50;;;3.63;;
78072;SDS011;67281;48.770;11.440;2023-09-12T05:16:19;4.70;;;4.30;;
78072;SDS011;67281;48.770;11.440;2023-09-12T05:18:45;4.03;;;3.57;;
78072;SDS011;67281;48.770;11.440;2023-09-12T05:21:12;4.33;;;3.93;;
78072;SDS011;67281;48.770;11.440;2023-09-12T05:23:39;7.27;;;4.20;;
78072;SDS011;67281;48.770;11.440;2023-09-12T05:26:06;4.97;;;4.47;;
78072;SDS011;67281;48.770;11.440;2023-09-12T05:28:33;4.73;;;4.30;;
78072;SDS011;67281;48.770;11.440;2023-09-12T05:31:00;6.43;;;4.33;;
78072;SDS011;67281;48.770;11.440;2023-09-12T05:33:28;4.63;;;4.23;;
78072;SDS011;67281;48.770;11.440;2023-09-12T05:35:58;5.70;;;3.90;;
78072;SDS011;67281;48.770;11.440;2023-09-12T05:38:25;4.83;;;4.43;;
78072;SDS011;67281;48.770;11.440;2023-09-12T05:40:52;3.73;;;3.43;;
78072;SDS011;67281;48.770;11.440;2023-09-12T05:43:19;5.80;;;4.80;;
78072;SDS011;67281;48.770;11.440;2023-09-12T05:45:46;4.13;;;3.70;;
78072;SDS011;67281;48.770;11.440;2023-09-12T05:48:13;4.40;;;3.93;;
78072;SDS011;67281;48.770;11.440;2023-09-12T05:50:40;5.33;;;4.43;;
78072;SDS011;67281;48.770;11.440;2023-09-12T05:53:07;4.47;;;3.27;;
78072;SDS011;67281;48.770;11.440;2023-09-12T05:55:34;5.07;;;3.80;;
78072;SDS011;67281;48.770;11.440;2023-09-12T05:58:02;4.20;;;3.77;;
78072;SDS011;67281;48.770;11.440;2023-09-12T06:00:32;5.70;;;5.17;;
78072;SDS011;67281;48.770;11.440;2023-09-12T06:02:59;5.30;;;4.83;;
78072;SDS011;67281;48.770;11.440;2023-09-12T06:05:27;5.30;;;4.80;;
78072;SDS011;67281;48.770;11.440;2023-09-12T06:07:54;4.10;;;3.77;;
78072;SDS011;67281;48.770;11.440;2023-09-12T06:10:21;6.13;;;5.30;;
78072;SDS011;67281;48.770;11.440;2023-09-12T06:12:48;4.57;;;4.17;;
78072;SDS011;67281;48.770;11.440;2023-09-12T06:15:16;4.23;;;3.83;;
78072;SDS011;67281;48.770;11.440;2023-09-12T06:17:43;4.50;;;4.10;;
78072;SDS011;67281;48.770;11.440;2023-09-12T06:20:10;5.27;;;4.70;;
78072;SDS011;67281;48.770;11.440;2023-09-12T06:22:37;7.43;;;5.07;;
78072;SDS011;67281;48.770;11.440;2023-09-12T06:25:04;5.63;;;5.07;;
78072;SDS011;67281;48.770;11.440;2023-09-12T06:27:32;7.93;;;5.33;;
78072;SDS011;67281;48.770;11.440;2023-09-12T06:29:59;4.93;;;4.53;;
78072;SDS011;67281;48.770;11.440;2023-09-12T06:32:26;4.67;;;4.27;;
78072;SDS011;67281;48.770;11.440;2023-09-12T06:34:53;4.63;;;4.33;;
78072;SDS011;67281;48.770;11.440;2023-09-12T06:37:20;4.77;;;4.40;;
78072;SDS011;67281;48.770;11.440;2023-09-12T06:39:49;5.83;;;5.33;;
78072;SDS011;67281;48.770;11.440;2023-09-12T06:42:17;5.20;;;4.80;;
78072;SDS011;67281;48.770;11.440;2023-09-12T06:44:44;3.97;;;3.67;;
78072;SDS011;67281;48.770;11.440;2023-09-12T06:47:11;5.27;;;4.77;;
78072;SDS011;67281;48.770;11.440;2023-09-12T06:49:38;4.20;;;3.90;;
78072;SDS011;67281;48.770;11.440;2023-09-12T06:52:05;4.80;;;3.83;;
78072;SDS011;67281;48.770;11.440;2023-09-12T06:54:32;4.60;;;3.90;;
78072;SDS011;67281;48.770;11.440;2023-09-12T06:57:00;4.77;;;3.90;;
78072;SDS011;67281;48.770;11.440;2023-09-12T06:59:27;10.90;;;4.57;;
78072;SDS011;67281;48.770;11.440;2023-09-12T07:01:53;6.50;;;4.53;;
78072;SDS011;67281;48.770;11.440;2023-09-12T07:04:21;4.17;;;3.87;;
78072;SDS011;67281;48.770;11.440;2023-09-12T07:06:48;4.27;;;3.93;;
78072;SDS011;67281;48.770;11.440;2023-09-12T07:09:15;7.03;;;5.07;;
78072;SDS011;67281;48.770;11.440;2023-09-12T07:11:41;4.73;;;4.33;;
78072;SDS011;67281;48.770;11.440;2023-09-12T07:14:09;6.23;;;5.10;;
78072;SDS011;67281;48.770;11.440;2023-09-12T07:16:36;4.60;;;4.20;;
78072;SDS011;67281;48.770;11.440;2023-09-12T07:19:03;6.57;;;4.87;;
78072;SDS011;67281;48.770;11.440;2023-09-12T07:21:31;4.43;;;4.03;;
78072;SDS011;67281;48.770;11.440;2023-09-12T07:23:58;5.17;;;4.70;;
78072;SDS011;67281;48.770;11.440;2023-09-12T07:26:25;5.07;;;4.20;;
78072;SDS011;67281;48.770;11.440;2023-09-12T07:28:54;3.90;;;3.60;;
78072;SDS011;67281;48.770;11.440;2023-09-12T07:31:20;6.93;;;5.67;;
78072;SDS011;67281;48.770;11.440;2023-09-12T07:33:48;5.30;;;4.80;;
78072;SDS011;67281;48.770;11.440;2023-09-12T07:36:15;6.77;;;4.20;;
78072;SDS011;67281;48.770;11.440;2023-09-12T07:38:42;5.33;;;4.87;;
78072;SDS011;67281;48.770;11.440;2023-09-12T07:41:12;5.87;;;4.17;;
78072;SDS011;67281;48.770;11.440;2023-09-12T07:43:38;4.10;;;3.80;;
78072;SDS011;67281;48.770;11.440;2023-09-12T07:46:07;4.50;;;4.10;;
78072;SDS011;67281;48.770;11.440;2023-09-12T07:48:34;4.13;;;3.73;;
78072;SDS011;67281;48.770;11.440;2023-09-12T07:51:01;6.30;;;4.60;;
78072;SDS011;67281;48.770;11.440;2023-09-12T07:53:27;4.60;;;4.20;;
78072;SDS011;67281;48.770;11.440;2023-09-12T07:55:58;4.40;;;4.00;;
78072;SDS011;67281;48.770;11.440;2023-09-12T07:58:25;5.33;;;4.83;;
78072;SDS011;67281;48.770;11.440;2023-09-12T08:00:52;8.83;;;5.10;;
78072;SDS011;67281;48.770;11.440;2023-09-12T08:03:19;5.50;;;4.00;;
78072;SDS011;67281;48.770;11.440;2023-09-12T08:05:59;4.77;;;4.27;;
78072;SDS011;67281;48.770;11.440;2023-09-12T08:08:25;6.17;;;4.60;;
78072;SDS011;67281;48.770;11.440;2023-09-12T08:10:53;6.13;;;4.53;;
78072;SDS011;67281;48.770;11.440;2023-09-12T08:13:21;5.90;;;4.97;;
78072;SDS011;67281;48.770;11.440;2023-09-12T08:15:47;4.67;;;4.37;;
78072;SDS011;67281;48.770;11.440;2023-09-12T08:18:14;5.87;;;4.83;;
78072;SDS011;67281;48.770;11.440;2023-09-12T08:20:42;4.80;;;4.30;;
78072;SDS011;67281;48.770;11.440;2023-09-12T08:23:09;5.70;;;5.20;;
78072;SDS011;67281;48.770;11.440;2023-09-12T08:25:36;5.00;;;4.60;;
78072;SDS011;67281;48.770;11.440;2023-09-12T08:28:03;6.23;;;4.63;;
78072;SDS011;67281;48.770;11.440;2023-09-12T08:30:30;7.93;;;5.10;;
78072;SDS011;67281;48.770;11.440;2023-09-12T08:32:57;5.33;;;4.83;;
78072;SDS011;67281;48.770;11.440;2023-09-12T08:35:24;5.17;;;4.77;;
78072;SDS011;67281;48.770;11.440;2023-09-12T08:37:53;5.87;;;5.00;;
78072;SDS011;67281;48.770;11.440;2023-09-12T08:40:19;8.53;;;5.93;;
78072;SDS011;67281;48.770;11.440;2023-09-12T08:42:47;5.63;;;4.33;;
78072;SDS011;67281;48.770;11.440;2023-09-12T08:45:16;6.50;;;5.40;;
78072;SDS011;67281;48.770;11.440;2023-09-12T08:47:51;5.57;;;4.03;;
78072;SDS011;67281;48.770;11.440;2023-09-12T08:50:20;7.87;;;6.57;;
78072;SDS011;67281;48.770;11.440;2023-09-12T08:52:49;4.83;;;4.43;;
78072;SDS011;67281;48.770;11.440;2023-09-12T08:55:33;4.33;;;4.00;;
78072;SDS011;67281;48.770;11.440;2023-09-12T08:58:03;5.73;;;4.67;;
78072;SDS011;67281;48.770;11.440;2023-09-12T09:00:31;7.47;;;4.33;;
78072;SDS011;67281;48.770;11.440;2023-09-12T09:03:01;5.10;;;4.60;;
78072;SDS011;67281;48.770;11.440;2023-09-12T09:05:30;7.27;;;5.27;;
78072;SDS011;67281;48.770;11.440;2023-09-12T09:07:58;6.17;;;4.77;;
78072;SDS011;67281;48.770;11.440;2023-09-12T09:10:25;6.20;;;5.37;;
78072;SDS011;67281;48.770;11.440;2023-09-12T09:13:16;4.50;;;3.83;;
78072;SDS011;67281;48.770;11.440;2023-09-12T09:15:43;4.97;;;4.57;;
78072;SDS011;67281;48.770;11.440;2023-09-12T09:18:10;5.67;;;5.03;;
78072;SDS011;67281;48.770;11.440;2023-09-12T09:20:39;5.40;;;4.50;;
78072;SDS011;67281;48.770;11.440;2023-09-12T09:23:08;3.70;;;3.43;;
78072;SDS011;67281;48.770;11.440;2023-09-12T09:25:41;4.53;;;4.13;;
78072;SDS011;67281;48.770;11.440;2023-09-12T09:28:21;3.80;;;3.47;;
78072;SDS011;67281;48.770;11.440;2023-09-12T09:30:49;4.47;;;3.80;;
78072;SDS011;67281;48.770;11.440;2023-09-12T09:33:21;6.33;;;3.27;;
78072;SDS011;67281;48.770;11.440;2023-09-12T09:35:49;4.47;;;4.03;;
78072;SDS011;67281;48.770;11.440;2023-09-12T09:38:21;5.50;;;4.13;;
78072;SDS011;67281;48.770;11.440;2023-09-12T09:40:49;2.80;;;2.57;;
78072;SDS011;67281;48.770;11.440;2023-09-12T09:43:20;4.93;;;4.43;;
78072;SDS011;67281;48.770;11.440;2023-09-12T09:45:47;4.50;;;4.10;;
78072;SDS011;67281;48.770;11.440;2023-09-12T09:48:19;3.57;;;3.27;;
78072;SDS011;67281;48.770;11.440;2023-09-12T09:50:51;8.18;;;4.57;;
78072;SDS011;67281;48.770;11.440;2023-09-12T09:53:27;3.33;;;3.05;;
78072;SDS011;67281;48.770;11.440;2023-09-12T09:56:14;4.80;;;4.27;;
78072;SDS011;67281;48.770;11.440;2023-09-12T09:58:48;3.45;;;3.15;;
78072;SDS011;67281;48.770;11.440;2023-09-12T10:01:21;3.92;;;3.58;;
78072;SDS011;67281;48.770;11.440;2023-09-12T10:03:50;4.07;;;3.53;;
78072;SDS011;67281;48.770;11.440;2023-09-12T10:06:18;5.75;;;3.40;;
78072;SDS011;67281;48.770;11.440;2023-09-12T10:08:50;4.07;;;3.55;;
78072;SDS011;67281;48.770;11.440;2023-09-12T10:11:18;4.80;;;4.30;;
78072;SDS011;67281;48.770;11.440;2023-09-12T10:13:52;4.50;;;3.65;;
78072;SDS011;67281;48.770;11.440;2023-09-12T10:16:24;5.72;;;4.13;;
78072;SDS011;67281;48.770;11.440;2023-09-12T10:18:59;4.22;;;3.35;;
78072;SDS011;67281;48.770;11.440;2023-09-12T10:21:30;4.05;;;3.70;;
78072;SDS011;67281;48.770;11.440;2023-09-12T10:23:58;3.35;;;3.05;;
78072;SDS011;67281;48.770;11.440;2023-09-12T10:26:26;3.60;;;3.30;;
78072;SDS011;67281;48.770;11.440;2023-09-12T10:28:55;3.42;;;2.83;;
78072;SDS011;67281;48.770;11.440;2023-09-12T10:31:22;4.10;;;3.80;;
78072;SDS011;67281;48.770;11.440;2023-09-12T10:33:51;3.35;;;3.05;;
78072;SDS011;67281;48.770;11.440;2023-09-12T10:36:18;3.08;;;2.55;;
78072;SDS011;67281;48.770;11.440;2023-09-12T10:38:47;2.88;;;2.67;;
78072;SDS011;67281;48.770;11.440;2023-09-12T10:41:15;3.00;;;2.80;;
78072;SDS011;67281;48.770;11.440;2023-09-12T10:43:43;3.92;;;3.63;;
78072;SDS011;67281;48.770;11.440;2023-09-12T10:46:16;3.75;;;3.22;;
78072;SDS011;67281;48.770;11.440;2023-09-12T10:48:43;6.85;;;3.03;;
78072;SDS011;67281;48.770;11.440;2023-09-12T10:51:11;3.00;;;2.80;;
78072;SDS011;67281;48.770;11.440;2023-09-12T10:53:44;3.55;;;3.25;;
78072;SDS011;67281;48.770;11.440;2023-09-12T10:56:16;2.47;;;2.38;;
78072;SDS011;67281;48.770;11.440;2023-09-12T11:01:39;4.15;;;3.75;;
78072;SDS011;67281;48.770;11.440;2023-09-12T11:06:54;4.03;;;2.95;;
78072;SDS011;67281;48.770;11.440;2023-09-12T11:09:25;4.50;;;2.83;;
78072;SDS011;67281;48.770;11.440;2023-09-12T11:14:20;4.05;;;3.28;;
78072;SDS011;67281;48.770;11.440;2023-09-12T11:19:43;3.90;;;3.15;;
78072;SDS011;67281;48.770;11.440;2023-09-12T11:24:52;3.22;;;2.90;;
78072;SDS011;67281;48.770;11.440;2023-09-12T11:27:19;3.67;;;3.10;;
78072;SDS011;67281;48.770;11.440;2023-09-12T11:29:46;2.85;;;2.65;;
78072;SDS011;67281;48.770;11.440;2023-09-12T11:32:29;4.13;;;3.65;;
78072;SDS011;67281;48.770;11.440;2023-09-12T11:34:59;3.95;;;3.28;;
78072;SDS011;67281;48.770;11.440;2023-09-12T11:37:30;3.47;;;3.20;;
78072;SDS011;67281;48.770;11.440;2023-09-12T11:39:59;2.75;;;2.55;;
78072;SDS011;67281;48.770;11.440;2023-09-12T11:42:26;4.22;;;3.83;;
78072;SDS011;67281;48.770;11.440;2023-09-12T11:44:54;3.80;;;3.35;;
78072;SDS011;67281;48.770;11.440;2023-09-12T11:47:21;3.45;;;3.00;;
78072;SDS011;67281;48.770;11.440;2023-09-12T11:49:49;4.18;;;3.15;;
78072;SDS011;67281;48.770;11.440;2023-09-12T11:52:16;2.97;;;2.72;;
78072;SDS011;67281;48.770;11.440;2023-09-12T11:54:43;2.92;;;2.30;;
78072;SDS011;67281;48.770;11.440;2023-09-12T11:57:12;4.28;;;3.05;;
78072;SDS011;67281;48.770;11.440;2023-09-12T11:59:41;3.55;;;2.65;;
78072;SDS011;67281;48.770;11.440;2023-09-12T12:02:11;2.97;;;2.58;;
78072;SDS011;67281;48.770;11.440;2023-09-12T12:04:38;3.47;;;3.17;;
78072;SDS011;67281;48.770;11.440;2023-09-12T12:07:06;3.63;;;3.22;;
78072;SDS011;67281;48.770;11.440;2023-09-12T12:09:33;3.25;;;2.92;;
78072;SDS011;67281;48.770;11.440;2023-09-12T12:12:08;3.47;;;3.22;;
78072;SDS011;67281;48.770;11.440;2023-09-12T12:14:36;4.72;;;2.92;;
78072;SDS011;67281;48.770;11.440;2023-09-12T12:17:08;3.65;;;3.35;;
78072;SDS011;67281;48.770;11.440;2023-09-12T12:19:36;3.85;;;3.30;;
78072;SDS011;67281;48.770;11.440;2023-09-12T12:22:04;2.75;;;2.55;;
78072;SDS011;67281;48.770;11.440;2023-09-12T12:24:36;2.90;;;2.60;;
78072;SDS011;67281;48.770;11.440;2023-09-12T12:27:08;4.03;;;3.38;;
78072;SDS011;67281;48.770;11.440;2023-09-12T12:29:36;3.53;;;3.20;;
78072;SDS011;67281;48.770;11.440;2023-09-12T12:32:06;2.75;;;2.55;;
78072;SDS011;67281;48.770;11.440;2023-09-12T12:34:35;3.20;;;2.90;;
78072;SDS011;67281;48.770;11.440;2023-09-12T12:37:27;2.88;;;2.67;;
78072;SDS011;67281;48.770;11.440;2023-09-12T12:39:57;4.07;;;3.30;;
78072;SDS011;67281;48.770;11.440;2023-09-12T12:42:32;2.22;;;2.08;;
78072;SDS011;67281;48.770;11.440;2023-09-12T12:45:23;2.78;;;2.58;;
78072;SDS011;67281;48.770;11.440;2023-09-12T12:47:58;3.03;;;2.80;;
78072;SDS011;67281;48.770;11.440;2023-09-12T12:50:27;3.75;;;3.22;;
78072;SDS011;67281;48.770;11.440;2023-09-12T12:52:54;2.45;;;2.05;;
78072;SDS011;67281;48.770;11.440;2023-09-12T12:55:21;3.50;;;1.90;;
78072;SDS011;67281;48.770;11.440;2023-09-12T12:57:51;2.47;;;2.28;;
78072;SDS011;67281;48.770;11.440;2023-09-12T13:00:18;3.08;;;2.78;;
78072;SDS011;67281;48.770;11.440;2023-09-12T13:02:45;2.72;;;2.53;;
78072;SDS011;67281;48.770;11.440;2023-09-12T13:05:19;2.58;;;2.38;;
78072;SDS011;67281;48.770;11.440;2023-09-12T13:07:46;4.30;;;2.97;;
78072;SDS011;67281;48.770;11.440;2023-09-12T13:10:13;2.67;;;2.47;;
78072;SDS011;67281;48.770;11.440;2023-09-12T13:12:40;3.17;;;2.85;;
78072;SDS011;67281;48.770;11.440;2023-09-12T13:15:07;2.97;;;2.75;;
78072;SDS011;67281;48.770;11.440;2023-09-12T13:17:35;3.65;;;2.85;;
78072;SDS011;67281;48.770;11.440;2023-09-12T13:20:02;2.97;;;2.58;;
78072;SDS011;67281;48.770;11.440;2023-09-12T13:22:29;2.70;;;2.50;;
78072;SDS011;67281;48.770;11.440;2023-09-12T13:24:56;2.38;;;2.17;;
78072;SDS011;67281;48.770;11.440;2023-09-12T13:27:23;2.42;;;2.22;;
78072;SDS011;67281;48.770;11.440;2023-09-12T13:29:50;1.98;;;1.77;;
78072;SDS011;67281;48.770;11.440;2023-09-12T13:32:17;2.15;;;2.00;;
78072;SDS011;67281;48.770;11.440;2023-09-12T13:34:44;8.07;;;2.20;;
78072;SDS011;67281;48.770;11.440;2023-09-12T13:37:11;2.10;;;2.00;;
78072;SDS011;67281;48.770;11.440;2023-09-12T13:39:39;2.40;;;2.20;;
78072;SDS011;67281;48.770;11.440;2023-09-12T13:42:06;2.83;;;2.53;;
78072;SDS011;67281;48.770;11.440;2023-09-12T13:44:34;2.70;;;2.50;;
78072;SDS011;67281;48.770;11.440;2023-09-12T13:47:01;2.58;;;2.38;;
78072;SDS011;67281;48.770;11.440;2023-09-12T13:49:29;2.97;;;2.22;;
78072;SDS011;67281;48.770;11.440;2023-09-12T13:51:55;2.33;;;2.20;;
78072;SDS011;67281;48.770;11.440;2023-09-12T13:54:22;2.33;;;2.15;;
78072;SDS011;67281;48.770;11.440;2023-09-12T13:56:49;2.28;;;2.05;;
78072;SDS011;67281;48.770;11.440;2023-09-12T13:59:16;2.03;;;1.92;;
78072;SDS011;67281;48.770;11.440;2023-09-12T14:01:44;2.40;;;2.20;;
78072;SDS011;67281;48.770;11.440;2023-09-12T14:04:11;2.75;;;2.00;;
78072;SDS011;67281;48.770;11.440;2023-09-12T14:06:38;2.72;;;2.53;;
78072;SDS011;67281;48.770;11.440;2023-09-12T14:09:05;2.03;;;1.92;;
78072;SDS011;67281;48.770;11.440;2023-09-12T14:11:33;2.55;;;2.20;;
78072;SDS011;67281;48.770;11.440;2023-09-12T14:14:03;1.98;;;1.88;;
78072;SDS011;67281;48.770;11.440;2023-09-12T14:16:33;2.05;;;1.95;;
78072;SDS011;67281;48.770;11.440;2023-09-12T14:19:00;2.63;;;2.42;;
78072;SDS011;67281;48.770;11.440;2023-09-12T14:21:29;1.63;;;1.50;;
78072;SDS011;67281;48.770;11.440;2023-09-12T14:23:57;1.92;;;1.83;;
78072;SDS011;67281;48.770;11.440;2023-09-12T14:26:24;1.90;;;1.80;;
78072;SDS011;67281;48.770;11.440;2023-09-12T14:28:51;2.70;;;2.50;;
78072;SDS011;67281;48.770;11.440;2023-09-12T14:31:18;2.42;;;2.17;;
78072;SDS011;67281;48.770;11.440;2023-09-12T14:33:45;2.40;;;2.20;;
78072;SDS011;67281;48.770;11.440;2023-09-12T14:36:12;2.65;;;2.45;;
78072;SDS011;67281;48.770;11.440;2023-09-12T14:38:39;1.70;;;1.60;;
78072;SDS011;67281;48.770;11.440;2023-09-12T14:41:06;1.95;;;1.73;;
78072;SDS011;67281;48.770;11.440;2023-09-12T14:43:33;3.35;;;1.50;;
78072;SDS011;67281;48.770;11.440;2023-09-12T14:46:00;1.85;;;1.65;;
78072;SDS011;67281;48.770;11.440;2023-09-12T14:48:27;2.58;;;2.28;;
78072;SDS011;67281;48.770;11.440;2023-09-12T14:50:54;2.72;;;2.50;;
78072;SDS011;67281;48.770;11.440;2023-09-12T14:53:21;2.22;;;1.85;;
78072;SDS011;67281;48.770;11.440;2023-09-12T14:55:47;4.30;;;2.15;;
78072;SDS011;67281;48.770;11.440;2023-09-12T14:58:14;1.92;;;1.75;;